KGMU/GMU METAR and TAF weather

Enter ICAO airport designator
Station Type Date Time Source
KGMU METAR 2021/06/22 23:53 UTC NOAA

KGMU 222353Z 05007KT 10SM CLR 26/14 A2995 RMK AO2 SLP130 T02610144 10289 20261 53016


Station Type Date Time Source
KGMU Decoded METAR 2021/06/22 23:53 UTC NOAA

GREENVILLE DOWNTOWN AIRPORT , SC, United States (KGMU) 34-51N 82-21W 315M
Jun 22, 2021 - 07:53 PM EDT / 2021.06.22 2353 UTC
Wind: from the NE (050 degrees) at 8 MPH (7 KT):0
Visibility: 10 mile(s):0
Sky conditions: clear
Temperature: 79.0 F (26.1 C)
Dew Point: 57.9 F (14.4 C)
Relative Humidity: 48%
Pressure (altimeter): 29.95 in. Hg (1014 hPa)
Pressure tendency: 0.05 inches (1.6 hPa) higher than three hours ago
ob: KGMU 222353Z 05007KT 10SM CLR 26/14 A2995 RMK AO2 SLP130 T02610144 10289 20261 53016
cycle: 0

Station Type Date Time Source
KGMU TAF 2021/06/22 18:27 UTC NOAA

TAF KGMU 221724Z 2218/2318 26010G18KT P6SM VCTS SCT020 BKN035CB
FM222000 29009KT P6SM BKN040
FM222300 34008KT P6SM SCT050 BKN150
FM230300 03007KT P6SM FEW060 SCT200

Example: see airport list